createdAt,value
2023-05-05T00:04:24.523Z,82.10
2023-05-05T00:09:29.915Z,81.90
2023-05-05T00:14:33.425Z,82.00
2023-05-05T00:19:37.209Z,82.00
2023-05-05T00:24:42.105Z,82.20
2023-05-05T00:29:45.727Z,82.10
2023-05-05T00:34:49.267Z,82.00
2023-05-05T00:39:54.312Z,81.90
2023-05-05T00:44:57.695Z,81.80
2023-05-05T00:50:01.233Z,81.80
2023-05-05T00:55:06.834Z,81.80
2023-05-05T01:00:11.487Z,82.00
2023-05-05T01:05:16.290Z,81.90
2023-05-05T01:10:27.518Z,81.60
2023-05-05T01:15:34.899Z,81.80
2023-05-05T01:20:44.215Z,81.90
2023-05-05T01:26:12.677Z,81.80
2023-05-05T01:31:25.257Z,81.70
2023-05-05T01:36:36.172Z,81.80
2023-05-05T01:41:42.458Z,81.90
2023-05-05T01:46:45.967Z,81.80
2023-05-05T01:51:51.399Z,82.00
2023-05-05T01:56:55.841Z,81.80
2023-05-05T02:02:01.289Z,81.80
2023-05-05T02:07:06.560Z,81.90
2023-05-05T02:12:10.283Z,81.80
2023-05-05T02:17:14.945Z,81.80
2023-05-05T02:22:19.960Z,81.60
2023-05-05T02:27:24.748Z,81.70
2023-05-05T02:32:32.446Z,82.10
2023-05-05T02:37:38.485Z,81.80
2023-05-05T02:42:43.300Z,81.90
2023-05-05T02:47:46.915Z,81.80
2023-05-05T02:52:51.942Z,81.90
2023-05-05T02:58:01.173Z,81.70
2023-05-05T03:03:14.209Z,81.90
2023-05-05T03:08:22.080Z,81.70
2023-05-05T03:13:26.648Z,81.70
2023-05-05T03:18:31.607Z,81.80
2023-05-05T03:23:37.206Z,81.70
2023-05-05T03:28:40.793Z,81.80
2023-05-05T03:33:44.267Z,81.60
2023-05-05T03:38:49.107Z,81.50
2023-05-05T03:43:52.881Z,81.80
2023-05-05T03:48:57.409Z,81.70
2023-05-05T03:54:02.255Z,81.60
2023-05-05T03:59:05.761Z,81.70
2023-05-05T04:04:09.751Z,81.70
2023-05-05T04:09:15.216Z,81.60
2023-05-05T04:14:18.720Z,81.40
2023-05-05T04:19:22.252Z,81.50
2023-05-05T04:24:27.250Z,81.40
2023-05-05T04:29:30.760Z,81.60
2023-05-05T04:34:34.289Z,81.60
2023-05-05T04:39:39.199Z,81.60
2023-05-05T04:44:42.658Z,81.60
2023-05-05T04:49:46.209Z,81.70
2023-05-05T04:54:51.180Z,81.40
2023-05-05T04:59:54.669Z,81.50
2023-05-05T05:04:58.171Z,81.50
2023-05-05T05:10:03.075Z,81.30
2023-05-05T05:15:07.516Z,81.40
2023-05-05T05:20:11.809Z,81.20
2023-05-05T05:25:16.993Z,81.60
2023-05-05T05:30:20.659Z,81.30
2023-05-05T05:35:24.192Z,81.30
2023-05-05T05:40:29.089Z,81.20
2023-05-05T05:45:32.767Z,81.10
2023-05-05T05:50:36.688Z,81.20
2023-05-05T05:55:41.638Z,81.10
2023-05-05T06:00:45.103Z,81.10
2023-05-05T06:05:48.516Z,81.00
2023-05-05T06:10:53.736Z,81.10
2023-05-05T06:15:57.288Z,80.90
2023-05-05T06:21:01.130Z,81.10
2023-05-05T06:26:06.123Z,80.80
2023-05-05T06:31:09.644Z,81.00
2023-05-05T06:36:13.199Z,80.80
2023-05-05T06:41:18.350Z,80.80
2023-05-05T06:46:21.967Z,80.90
2023-05-05T06:51:26.658Z,80.90
2023-05-05T06:56:32.347Z,80.80
2023-05-05T07:01:36.231Z,80.60
2023-05-05T07:06:39.701Z,80.50
2023-05-05T07:11:44.516Z,80.50
2023-05-05T07:16:48.132Z,80.50
2023-05-05T07:21:52.218Z,80.60
2023-05-05T07:26:57.652Z,80.30
2023-05-05T07:32:01.170Z,80.30
2023-05-05T07:37:04.990Z,80.20
2023-05-05T07:42:09.946Z,80.20
2023-05-05T07:47:13.449Z,80.30
2023-05-05T07:52:16.905Z,80.10
2023-05-05T07:57:21.881Z,80.20
2023-05-05T08:02:25.469Z,80.40
2023-05-05T08:07:29.076Z,80.30
2023-05-05T08:12:34.045Z,80.30
2023-05-05T08:17:48.212Z,80.40
2023-05-05T08:22:51.920Z,80.60
2023-05-05T08:27:57.020Z,80.50
2023-05-05T08:33:00.959Z,80.60
2023-05-05T08:38:04.512Z,80.60
2023-05-05T08:43:09.621Z,80.70
2023-05-05T08:48:14.194Z,80.80
2023-05-05T08:53:18.755Z,80.90
2023-05-05T08:58:25.953Z,80.90
2023-05-05T09:03:31.436Z,80.90
2023-05-05T09:08:35.483Z,80.70
2023-05-05T09:13:40.344Z,80.90
2023-05-05T09:18:45.761Z,80.60
2023-05-05T09:24:10.249Z,80.70
2023-05-05T09:29:20.885Z,80.80
2023-05-05T09:34:24.551Z,81.00
2023-05-05T09:39:28.062Z,80.80
2023-05-05T09:44:37.270Z,81.10
2023-05-05T09:49:40.850Z,81.00
2023-05-05T09:54:45.233Z,80.90
2023-05-05T09:59:58.742Z,81.10
2023-05-05T10:05:07.526Z,81.00
2023-05-05T10:10:12.525Z,80.80
2023-05-05T10:15:18.038Z,81.00
2023-05-05T10:20:22.813Z,81.10
2023-05-05T10:25:31.298Z,81.00
2023-05-05T10:35:50.209Z,81.10
2023-05-05T10:40:54.177Z,81.10
2023-05-05T10:45:59.527Z,80.70
2023-05-05T10:51:35.291Z,80.90
2023-05-05T10:56:43.918Z,81.00
2023-05-05T11:01:51.016Z,81.00
2023-05-05T11:07:24.877Z,80.70
2023-05-05T11:12:28.421Z,80.80
2023-05-05T11:17:48.976Z,81.20
2023-05-05T11:23:25.218Z,81.00
2023-05-05T11:28:31.287Z,81.00
2023-05-05T11:33:37.332Z,81.10
2023-05-05T11:38:57.000Z,81.00
2023-05-05T11:44:13.220Z,81.00
2023-05-05T11:49:27.722Z,81.30
2023-05-05T11:54:31.546Z,80.90
2023-05-05T11:59:36.607Z,81.00
2023-05-05T12:04:42.229Z,81.10
2023-05-05T12:09:47.137Z,81.20
2023-05-05T12:14:53.241Z,81.20
2023-05-05T12:19:58.159Z,81.00
2023-05-05T12:25:03.953Z,80.90
2023-05-05T12:30:16.327Z,80.70
2023-05-05T12:35:22.153Z,81.00
2023-05-05T12:40:48.319Z,81.20
2023-05-05T12:46:00.777Z,80.90
2023-05-05T12:51:16.676Z,81.30
2023-05-05T12:56:41.089Z,81.10
2023-05-05T13:01:51.492Z,80.80
2023-05-05T13:07:12.477Z,80.90
2023-05-05T13:12:16.692Z,81.00
2023-05-05T13:17:20.139Z,80.90
2023-05-05T13:22:25.020Z,80.80
2023-05-05T13:27:28.592Z,81.00
2023-05-05T13:32:32.108Z,80.90
2023-05-05T13:37:37.030Z,80.90
2023-05-05T13:42:40.455Z,80.90
2023-05-05T13:47:45.343Z,80.90
2023-05-05T13:52:50.208Z,80.80
2023-05-05T13:57:53.633Z,80.70
2023-05-05T14:02:57.184Z,80.80
2023-05-05T14:08:02.140Z,81.00
2023-05-05T14:13:05.794Z,80.90
2023-05-05T14:18:09.841Z,80.90
2023-05-05T14:23:14.662Z,80.80
2023-05-05T14:28:18.092Z,80.80
2023-05-05T14:33:22.336Z,80.80
2023-05-05T14:38:27.257Z,80.70
2023-05-05T14:43:30.805Z,80.50
2023-05-05T14:48:34.521Z,81.00
2023-05-05T14:53:39.393Z,80.70
2023-05-05T14:58:42.884Z,80.50
2023-05-05T15:03:46.483Z,80.80
2023-05-05T15:08:51.331Z,80.80
2023-05-05T15:13:54.801Z,80.70
2023-05-05T15:18:58.319Z,80.70
2023-05-05T15:24:04.584Z,81.00
2023-05-05T15:29:08.110Z,80.90
2023-05-05T15:34:11.540Z,80.90
2023-05-05T15:39:16.460Z,81.00
2023-05-05T15:44:19.988Z,80.90
2023-05-05T15:49:23.488Z,80.90
2023-05-05T15:54:28.261Z,81.00
2023-05-05T15:59:31.676Z,80.80
2023-05-05T16:04:35.602Z,81.00
2023-05-05T16:09:40.600Z,81.00
2023-05-05T16:14:44.149Z,81.00
2023-05-05T16:19:47.657Z,80.80
2023-05-05T16:24:52.525Z,80.90
2023-05-05T16:29:58.427Z,80.90
2023-05-05T16:35:03.272Z,80.90
2023-05-05T16:40:09.882Z,80.80
2023-05-05T16:45:13.464Z,80.90
2023-05-05T16:50:17.864Z,81.00
2023-05-05T16:55:22.825Z,81.00
2023-05-05T17:00:26.335Z,80.90
2023-05-05T17:05:29.800Z,80.80
2023-05-05T17:10:34.865Z,81.00
2023-05-05T17:15:38.761Z,81.00
2023-05-05T17:20:42.966Z,80.90
2023-05-05T17:25:47.875Z,80.90
2023-05-05T17:30:51.243Z,81.10
2023-05-05T17:35:54.723Z,81.10
2023-05-05T17:40:59.616Z,81.10
2023-05-05T17:46:03.161Z,81.00
2023-05-05T17:51:06.730Z,80.90
2023-05-05T17:56:11.627Z,81.10
2023-05-05T18:01:22.398Z,81.30
2023-05-05T18:06:26.242Z,81.10
2023-05-05T18:11:31.274Z,81.00
2023-05-05T18:16:34.728Z,81.20
2023-05-05T18:21:38.162Z,81.10
2023-05-05T18:26:43.138Z,80.90
2023-05-05T18:31:48.667Z,81.00
2023-05-05T18:36:54.502Z,81.10
2023-05-05T18:41:59.349Z,81.40
2023-05-05T18:47:03.041Z,81.30
2023-05-05T18:52:06.791Z,81.10
2023-05-05T18:57:11.659Z,81.10
2023-05-05T19:02:15.278Z,81.10
2023-05-05T19:07:31.303Z,81.10
2023-05-05T19:12:39.707Z,81.20
2023-05-05T19:17:43.358Z,81.00
2023-05-05T19:22:46.959Z,81.30
2023-05-05T19:27:51.922Z,81.20
2023-05-05T19:32:55.526Z,81.30
2023-05-05T19:37:59.104Z,81.30
2023-05-05T19:43:03.960Z,81.10
2023-05-05T19:48:08.003Z,81.30
2023-05-05T19:53:11.550Z,81.30
2023-05-05T19:58:16.431Z,81.20
2023-05-05T20:03:19.955Z,81.40
2023-05-05T20:08:23.526Z,81.40
2023-05-05T20:13:28.489Z,81.30
2023-05-05T20:18:32.107Z,81.20
2023-05-05T20:23:35.624Z,81.30
2023-05-05T20:28:43.301Z,81.50
2023-05-05T20:33:48.469Z,81.40
2023-05-05T20:38:52.179Z,81.50
2023-05-05T20:43:57.051Z,81.50
2023-05-05T20:49:00.584Z,81.50
2023-05-05T20:54:04.281Z,81.60
2023-05-05T20:59:09.290Z,81.50
2023-05-05T21:04:12.772Z,81.50
2023-05-05T21:09:16.883Z,81.40
2023-05-05T21:14:22.196Z,81.40
2023-05-05T21:19:25.662Z,81.10
2023-05-05T21:24:29.229Z,81.10
2023-05-05T21:29:37.766Z,80.90
2023-05-05T21:34:41.196Z,81.00
2023-05-05T21:39:44.866Z,80.80
2023-05-05T21:44:49.965Z,80.90
2023-05-05T21:49:53.396Z,80.90
2023-05-05T21:54:56.902Z,80.80
2023-05-05T22:00:01.836Z,80.50
2023-05-05T22:05:05.985Z,80.80
2023-05-05T22:10:10.694Z,80.80
2023-05-05T22:15:19.468Z,80.90
2023-05-05T22:20:23.037Z,80.70
2023-05-05T22:25:26.660Z,80.60
2023-05-05T22:30:31.614Z,80.60
2023-05-05T22:35:35.292Z,80.90
2023-05-05T22:40:38.782Z,80.70
2023-05-05T22:45:44.547Z,80.40
2023-05-05T22:50:48.048Z,80.60
2023-05-05T22:55:51.862Z,80.20
2023-05-05T23:00:56.770Z,80.40
2023-05-05T23:06:00.526Z,80.40
2023-05-05T23:11:03.964Z,80.30
2023-05-05T23:16:09.093Z,80.30
2023-05-05T23:21:12.524Z,80.30
2023-05-05T23:26:16.092Z,80.30
2023-05-05T23:31:20.986Z,80.10
2023-05-05T23:36:24.537Z,80.20
2023-05-05T23:41:28.045Z,80.20
2023-05-05T23:46:32.992Z,80.20
2023-05-05T23:51:36.656Z,80.30
2023-05-05T23:56:40.980Z,80.20
